createdAt,value
2023-01-05T00:01:37.278Z,72.27
2023-01-05T00:04:40.495Z,72.24
2023-01-05T00:07:44.527Z,72.30
2023-01-05T00:11:06.488Z,72.33
2023-01-05T00:14:34.111Z,72.26
2023-01-05T00:17:55.653Z,72.31
2023-01-05T00:21:21.314Z,72.37
2023-01-05T00:24:24.628Z,72.42
2023-01-05T00:27:27.928Z,72.43
2023-01-05T00:30:44.976Z,72.44
2023-01-05T00:33:48.183Z,72.43
2023-01-05T00:36:51.475Z,72.55
2023-01-05T00:39:54.741Z,72.62
2023-01-05T00:42:57.885Z,72.60
2023-01-05T00:46:01.248Z,72.68
2023-01-05T00:49:04.486Z,72.66
2023-01-05T00:52:08.471Z,72.69
2023-01-05T00:55:12.295Z,72.82
2023-01-05T00:58:15.675Z,72.90
2023-01-05T01:01:18.936Z,73.04
2023-01-05T01:04:22.475Z,73.08
2023-01-05T01:07:25.706Z,73.14
2023-01-05T01:10:28.903Z,73.17
2023-01-05T01:13:34.106Z,73.22
2023-01-05T01:16:37.544Z,73.23
2023-01-05T01:19:40.836Z,73.17
2023-01-05T01:22:43.994Z,73.25
2023-01-05T01:25:47.384Z,73.32
2023-01-05T01:28:50.690Z,73.37
2023-01-05T01:31:54.323Z,73.40
2023-01-05T01:34:57.520Z,73.47
2023-01-05T01:38:00.824Z,73.45
2023-01-05T01:41:04.309Z,73.63
2023-01-05T01:44:45.098Z,73.57
2023-01-05T01:47:51.459Z,73.73
2023-01-05T01:50:55.694Z,73.75
2023-01-05T01:54:05.221Z,73.83
2023-01-05T01:57:13.248Z,73.88
2023-01-05T02:00:18.750Z,73.96
2023-01-05T02:03:21.918Z,73.86
2023-01-05T02:06:25.218Z,73.99
2023-01-05T02:09:29.769Z,74.01
2023-01-05T02:12:32.989Z,74.13
2023-01-05T02:15:38.932Z,74.13
2023-01-05T02:18:57.785Z,74.10
2023-01-05T02:22:13.108Z,74.04
2023-01-05T02:25:16.383Z,74.14
2023-01-05T02:28:34.803Z,74.20
2023-01-05T02:31:48.271Z,74.19
2023-01-05T02:35:06.459Z,74.22
2023-01-05T02:38:20.841Z,74.18
2023-01-05T02:41:26.672Z,74.09
2023-01-05T02:44:32.888Z,74.12
2023-01-05T02:47:39.597Z,74.24
2023-01-05T02:50:53.268Z,74.26
2023-01-05T02:54:05.699Z,74.20
2023-01-05T02:57:15.417Z,74.21
2023-01-05T03:00:27.077Z,74.29
2023-01-05T03:03:34.264Z,74.35
2023-01-05T03:06:47.018Z,74.44
2023-01-05T03:09:52.130Z,74.42
2023-01-05T03:13:16.884Z,74.44
2023-01-05T03:16:28.676Z,74.47
2023-01-05T03:19:44.012Z,74.53
2023-01-05T03:23:08.705Z,74.68
2023-01-05T03:26:31.533Z,74.62
2023-01-05T03:29:53.629Z,74.65
2023-01-05T03:33:26.162Z,74.69
2023-01-05T03:36:31.494Z,74.72
2023-01-05T03:39:39.198Z,74.75
2023-01-05T03:42:43.852Z,74.70
2023-01-05T03:45:53.072Z,74.74
2023-01-05T03:48:59.112Z,74.69
2023-01-05T03:52:03.589Z,74.67
2023-01-05T03:55:07.429Z,74.77
2023-01-05T03:58:11.142Z,74.70
2023-01-05T04:01:17.761Z,74.69
2023-01-05T04:04:21.670Z,74.80
2023-01-05T04:07:25.056Z,74.64
2023-01-05T04:10:29.141Z,74.82
2023-01-05T04:13:32.609Z,74.77
2023-01-05T04:16:36.044Z,74.75
2023-01-05T04:19:47.959Z,74.77
2023-01-05T04:22:51.479Z,74.78
2023-01-05T04:25:56.520Z,74.85
2023-01-05T04:29:00.147Z,74.83
2023-01-05T04:32:04.559Z,74.83
2023-01-05T04:35:11.340Z,74.74
2023-01-05T04:38:16.253Z,74.91
2023-01-05T04:41:20.106Z,74.79
2023-01-05T04:44:25.061Z,74.76
2023-01-05T04:47:30.584Z,74.63
2023-01-05T04:50:35.250Z,74.68
2023-01-05T04:53:38.605Z,74.68
2023-01-05T04:56:42.424Z,74.77
2023-01-05T04:59:45.842Z,74.63
2023-01-05T05:02:49.978Z,74.72
2023-01-05T05:05:53.346Z,74.71
2023-01-05T05:08:56.938Z,74.76
2023-01-05T05:12:01.184Z,74.67
2023-01-05T05:15:05.178Z,74.70
2023-01-05T05:18:09.758Z,74.78
2023-01-05T05:21:14.581Z,74.74
2023-01-05T05:24:17.977Z,74.82
2023-01-05T05:27:21.767Z,74.71
2023-01-05T05:30:24.942Z,74.82
2023-01-05T05:33:28.318Z,74.71
2023-01-05T05:36:32.440Z,74.71
2023-01-05T05:39:35.749Z,74.75
2023-01-05T05:42:38.972Z,74.80
2023-01-05T05:45:49.592Z,74.72
2023-01-05T05:48:53.433Z,74.65
2023-01-05T05:51:56.683Z,74.74
2023-01-05T05:54:59.883Z,74.74
2023-01-05T05:58:03.217Z,74.68
2023-01-05T06:01:06.877Z,74.77
2023-01-05T06:04:10.187Z,74.80
2023-01-05T06:07:13.427Z,74.79
2023-01-05T06:10:16.646Z,74.82
2023-01-05T06:13:19.899Z,74.82
2023-01-05T06:16:23.300Z,74.86
2023-01-05T06:19:26.557Z,74.82
2023-01-05T06:22:29.762Z,74.89
2023-01-05T06:25:33.607Z,74.83
2023-01-05T06:28:36.848Z,74.73
2023-01-05T06:31:40.411Z,74.66
2023-01-05T06:34:43.839Z,74.61
2023-01-05T06:37:47.105Z,74.73
2023-01-05T06:40:50.332Z,74.82
2023-01-05T06:43:53.721Z,74.82
2023-01-05T06:46:56.968Z,74.79
2023-01-05T06:50:00.247Z,74.82
2023-01-05T06:53:03.621Z,74.86
2023-01-05T06:56:07.136Z,74.80
2023-01-05T06:59:12.654Z,74.78
2023-01-05T07:02:17.372Z,74.97
2023-01-05T07:05:20.836Z,74.91
2023-01-05T07:08:24.138Z,74.86
2023-01-05T07:11:27.839Z,74.86
2023-01-05T07:14:31.109Z,74.87
2023-01-05T07:17:34.533Z,74.87
2023-01-05T07:20:38.386Z,74.83
2023-01-05T07:23:41.661Z,74.98
2023-01-05T07:26:44.932Z,74.87
2023-01-05T07:29:48.259Z,74.96
2023-01-05T07:32:51.526Z,75.03
2023-01-05T07:35:54.729Z,75.01
2023-01-05T07:38:59.626Z,75.13
2023-01-05T07:42:03.174Z,75.25
2023-01-05T07:45:07.536Z,75.26
2023-01-05T07:48:10.743Z,75.35
2023-01-05T07:51:13.964Z,75.39
2023-01-05T07:54:17.272Z,75.35
2023-01-05T07:57:20.481Z,75.33
2023-01-05T08:00:32.166Z,75.40
2023-01-05T08:03:35.939Z,75.43
2023-01-05T08:06:39.760Z,75.53
2023-01-05T08:10:01.776Z,75.50
2023-01-05T08:13:25.081Z,75.45
2023-01-05T08:16:33.519Z,75.40
2023-01-05T08:19:36.992Z,75.43
2023-01-05T08:22:40.309Z,75.44
2023-01-05T08:25:43.559Z,75.37
2023-01-05T08:28:47.225Z,75.35
2023-01-05T08:31:50.601Z,75.38
2023-01-05T08:34:55.649Z,75.46
2023-01-05T08:37:59.233Z,75.33
2023-01-05T08:41:05.066Z,75.33
2023-01-05T08:44:12.265Z,75.26
2023-01-05T08:47:18.039Z,75.31
2023-01-05T08:50:21.658Z,75.36
2023-01-05T08:53:24.935Z,75.38
2023-01-05T08:56:33.093Z,75.30
2023-01-05T08:59:40.833Z,75.34
2023-01-05T09:02:44.682Z,75.31
2023-01-05T09:05:48.234Z,75.33
2023-01-05T09:08:51.609Z,75.23
2023-01-05T09:11:54.926Z,75.14
2023-01-05T09:15:04.227Z,75.10
2023-01-05T09:18:07.719Z,75.03
2023-01-05T09:21:13.621Z,75.15
2023-01-05T09:24:16.987Z,75.28
2023-01-05T09:27:20.320Z,75.25
2023-01-05T09:30:23.645Z,75.17
2023-01-05T09:33:26.892Z,75.20
2023-01-05T09:36:30.305Z,75.27
2023-01-05T09:39:33.690Z,75.12
2023-01-05T09:42:41.337Z,75.12
2023-01-05T09:45:45.211Z,75.04
2023-01-05T09:48:53.167Z,74.85
2023-01-05T09:52:02.577Z,74.99
2023-01-05T09:55:21.363Z,74.80
2023-01-05T09:58:30.203Z,74.86
2023-01-05T10:01:36.880Z,74.76
2023-01-05T10:04:40.574Z,74.54
2023-01-05T10:08:04.271Z,74.49
2023-01-05T10:11:33.200Z,74.49
2023-01-05T10:14:41.671Z,74.36
2023-01-05T10:17:45.213Z,74.29
2023-01-05T10:21:01.113Z,74.12
2023-01-05T10:24:25.203Z,74.13
2023-01-05T10:27:53.245Z,74.07
2023-01-05T10:31:03.030Z,74.06
2023-01-05T10:34:19.508Z,73.83
2023-01-05T10:38:15.144Z,73.93
2023-01-05T10:41:32.878Z,73.71
2023-01-05T10:44:52.677Z,73.67
2023-01-05T10:47:56.326Z,73.46
2023-01-05T10:51:00.658Z,73.43
2023-01-05T10:54:05.761Z,73.47
2023-01-05T10:57:35.460Z,73.32
2023-01-05T11:00:43.211Z,73.39
2023-01-05T11:07:13.222Z,73.05
2023-01-05T11:10:31.293Z,72.88
2023-01-05T11:13:42.185Z,72.93
2023-01-05T11:16:53.659Z,72.79
2023-01-05T11:19:58.483Z,72.74
2023-01-05T11:23:01.921Z,72.90
2023-01-05T11:26:47.492Z,72.86
2023-01-05T11:30:16.027Z,72.92
2023-01-05T11:33:25.934Z,72.77
2023-01-05T11:36:29.414Z,72.78
2023-01-05T11:39:59.013Z,72.56
2023-01-05T11:43:12.239Z,72.47
2023-01-05T11:46:16.713Z,72.43
2023-01-05T11:49:20.302Z,72.53
2023-01-05T11:52:39.441Z,72.90
2023-01-05T11:55:42.722Z,73.02
2023-01-05T11:58:47.784Z,73.29
2023-01-05T12:02:18.847Z,73.46
2023-01-05T12:05:52.058Z,73.80
2023-01-05T12:09:36.460Z,73.90
2023-01-05T12:17:00.686Z,74.30
2023-01-05T12:22:28.481Z,74.25
2023-01-05T12:25:49.356Z,74.22
2023-01-05T12:34:01.327Z,74.13
2023-01-05T12:36:58.969Z,74.21
2023-01-05T12:40:12.690Z,73.99
2023-01-05T12:43:29.591Z,73.23
2023-01-05T12:46:58.687Z,72.49
2023-01-05T12:50:25.266Z,72.31
2023-01-05T12:53:32.956Z,72.30
2023-01-05T12:57:00.681Z,72.44
2023-01-05T13:00:05.532Z,72.54
2023-01-05T13:03:23.447Z,72.69
2023-01-05T13:06:26.196Z,72.63
2023-01-05T13:09:31.836Z,72.85
2023-01-05T13:12:36.434Z,73.04
2023-01-05T13:15:56.426Z,72.99
2023-01-05T13:19:10.136Z,73.16
2023-01-05T13:22:35.722Z,73.29
2023-01-05T13:25:48.330Z,73.50
2023-01-05T13:29:00.939Z,73.50
2023-01-05T13:32:22.839Z,73.52
2023-01-05T13:35:57.015Z,73.40
2023-01-05T13:39:03.662Z,73.58
2023-01-05T13:42:24.753Z,73.79
2023-01-05T13:45:44.136Z,73.87
2023-01-05T13:49:20.335Z,73.93
2023-01-05T13:52:55.809Z,73.93
2023-01-05T13:56:00.658Z,74.10
2023-01-05T13:59:15.606Z,74.24
2023-01-05T14:02:56.525Z,74.15
2023-01-05T14:06:01.742Z,74.34
2023-01-05T14:09:08.289Z,74.39
2023-01-05T14:12:16.316Z,74.39
2023-01-05T14:15:29.326Z,74.41
2023-01-05T14:18:52.483Z,74.39
2023-01-05T14:21:59.205Z,74.50
2023-01-05T14:25:39.458Z,74.47
2023-01-05T14:28:45.600Z,74.55
2023-01-05T14:31:47.852Z,74.60
2023-01-05T14:34:51.294Z,74.52
2023-01-05T14:37:56.107Z,74.55
2023-01-05T14:40:58.762Z,74.53
2023-01-05T14:44:17.796Z,74.65
2023-01-05T14:47:43.314Z,74.52
2023-01-05T14:50:45.348Z,74.57
2023-01-05T14:53:49.520Z,74.56
2023-01-05T14:57:26.369Z,74.59
2023-01-05T15:00:37.236Z,74.49
2023-01-05T15:03:47.920Z,74.50
2023-01-05T15:07:09.960Z,74.44
2023-01-05T15:10:53.341Z,74.43
2023-01-05T15:14:30.251Z,74.44
2023-01-05T15:17:56.612Z,74.39
2023-01-05T15:21:07.610Z,74.27
2023-01-05T15:24:24.425Z,74.38
2023-01-05T15:27:32.337Z,74.19
2023-01-05T15:30:41.292Z,74.07
2023-01-05T15:33:56.894Z,73.83
2023-01-05T15:37:24.482Z,73.73
2023-01-05T15:40:30.317Z,73.54
2023-01-05T15:43:33.693Z,73.46
2023-01-05T15:46:35.677Z,73.32
2023-01-05T15:49:39.318Z,73.31
2023-01-05T15:52:41.280Z,73.19
2023-01-05T15:55:43.797Z,73.21
2023-01-05T15:58:45.717Z,72.95
2023-01-05T16:01:47.638Z,73.05
2023-01-05T16:08:42.717Z,73.07
2023-01-05T16:11:48.178Z,72.84
2023-01-05T16:14:57.056Z,72.78
2023-01-05T16:17:59.319Z,72.66
2023-01-05T16:21:06.260Z,72.61
2023-01-05T16:24:19.140Z,72.67
2023-01-05T16:27:21.225Z,72.82
2023-01-05T16:30:34.357Z,72.89
2023-01-05T16:33:37.891Z,72.87
2023-01-05T16:36:39.840Z,72.90
2023-01-05T16:39:43.420Z,72.82
2023-01-05T16:42:54.674Z,72.88
2023-01-05T16:46:20.516Z,72.93
2023-01-05T16:49:32.672Z,72.85
2023-01-05T16:52:45.936Z,73.04
2023-01-05T16:55:48.683Z,73.01
2023-01-05T16:58:55.020Z,72.99
2023-01-05T17:01:58.300Z,72.93
2023-01-05T17:05:00.408Z,72.93
2023-01-05T17:08:24.379Z,72.90
2023-01-05T17:11:35.967Z,72.85
2023-01-05T17:14:39.150Z,72.88
2023-01-05T17:17:41.017Z,72.71
2023-01-05T17:20:45.213Z,72.73
2023-01-05T17:23:50.972Z,72.68
2023-01-05T17:26:53.099Z,72.58
2023-01-05T17:29:59.152Z,72.54
2023-01-05T17:33:02.419Z,72.42
2023-01-05T17:36:07.599Z,72.23
2023-01-05T17:39:15.510Z,72.12
2023-01-05T17:42:39.127Z,71.84
2023-01-05T17:45:43.322Z,71.75
2023-01-05T17:48:45.713Z,71.77
2023-01-05T17:51:47.586Z,71.64
2023-01-05T17:54:49.400Z,71.61
2023-01-05T17:57:51.543Z,71.50
2023-01-05T18:00:53.733Z,71.35
2023-01-05T18:03:55.556Z,71.18
2023-01-05T18:07:00.791Z,71.08
2023-01-05T18:10:04.617Z,71.01
2023-01-05T18:13:08.587Z,70.96
2023-01-05T18:16:11.549Z,70.81
2023-01-05T18:22:21.308Z,70.71
2023-01-05T18:25:24.972Z,70.67
2023-01-05T18:28:27.707Z,70.62
2023-01-05T18:31:29.589Z,70.46
2023-01-05T18:34:31.862Z,70.50
2023-01-05T18:37:34.108Z,70.40
2023-01-05T18:40:35.878Z,70.44
2023-01-05T18:43:38.009Z,70.34
2023-01-05T18:46:39.966Z,70.32
2023-01-05T18:49:41.892Z,70.30
2023-01-05T18:52:43.720Z,70.32
2023-01-05T18:55:45.713Z,70.37
2023-01-05T18:58:47.612Z,70.29
2023-01-05T19:01:49.563Z,70.23
2023-01-05T19:04:52.313Z,70.29
2023-01-05T19:07:54.191Z,70.19
2023-01-05T19:10:56.008Z,70.26
2023-01-05T19:13:59.696Z,70.22
2023-01-05T19:17:02.093Z,70.26
2023-01-05T19:20:04.569Z,70.23
2023-01-05T19:23:06.736Z,70.33
2023-01-05T19:26:11.911Z,70.39
2023-01-05T19:29:15.002Z,70.50
2023-01-05T19:32:16.880Z,70.56
2023-01-05T19:35:18.809Z,70.80
2023-01-05T19:38:20.683Z,70.91
2023-01-05T19:41:23.976Z,71.13
2023-01-05T19:44:26.448Z,71.09
2023-01-05T19:47:28.705Z,71.15
2023-01-05T19:50:30.385Z,71.25
2023-01-05T19:53:33.394Z,70.94
2023-01-05T19:56:36.623Z,70.86
2023-01-05T19:59:38.477Z,70.69
2023-01-05T20:02:41.448Z,70.54
2023-01-05T20:05:43.428Z,70.32
2023-01-05T20:08:53.210Z,70.23
2023-01-05T20:12:05.798Z,70.24
2023-01-05T20:15:15.061Z,70.08
2023-01-05T20:18:16.916Z,70.07
2023-01-05T20:21:18.789Z,70.29
2023-01-05T20:24:26.156Z,70.00
2023-01-05T20:27:29.016Z,69.79
2023-01-05T20:30:33.944Z,69.75
2023-01-05T20:33:36.046Z,69.56
2023-01-05T20:36:38.522Z,69.43
2023-01-05T20:39:41.189Z,69.16
2023-01-05T20:42:43.052Z,69.04
2023-01-05T20:45:44.991Z,69.11
2023-01-05T20:48:49.543Z,69.17
2023-01-05T20:51:52.339Z,69.25
2023-01-05T20:54:55.234Z,69.00
2023-01-05T20:57:57.070Z,68.95
2023-01-05T21:01:10.148Z,68.79
2023-01-05T21:04:13.865Z,68.74
2023-01-05T21:07:15.784Z,68.58
2023-01-05T21:10:17.772Z,68.40
2023-01-05T21:13:30.717Z,68.27
2023-01-05T21:16:43.923Z,68.28
2023-01-05T21:19:46.322Z,68.27
2023-01-05T21:22:48.228Z,68.44
2023-01-05T21:26:06.217Z,68.26
2023-01-05T21:29:16.502Z,68.20
2023-01-05T21:32:24.527Z,68.35
2023-01-05T21:35:26.395Z,68.36
2023-01-05T21:39:00.962Z,68.11
2023-01-05T21:42:10.614Z,68.12
2023-01-05T21:45:12.909Z,67.92
2023-01-05T21:48:14.828Z,67.93
2023-01-05T21:51:35.439Z,67.86
2023-01-05T21:54:56.085Z,68.10
2023-01-05T21:57:58.153Z,67.90
2023-01-05T22:01:08.645Z,67.70
2023-01-05T22:04:12.399Z,68.00
2023-01-05T22:07:14.352Z,67.68
2023-01-05T22:10:17.132Z,67.86
2023-01-05T22:13:19.018Z,67.70
2023-01-05T22:16:20.996Z,67.28
2023-01-05T22:19:22.912Z,67.59
2023-01-05T22:22:24.918Z,67.47
2023-01-05T22:25:26.825Z,67.64
2023-01-05T22:28:29.540Z,67.29
2023-01-05T22:31:32.954Z,67.45
2023-01-05T22:34:35.745Z,67.57
2023-01-05T22:37:37.845Z,67.40
2023-01-05T22:40:39.785Z,67.41
2023-01-05T22:43:42.893Z,67.27
2023-01-05T22:46:44.827Z,67.32
2023-01-05T22:49:46.752Z,67.13
2023-01-05T22:52:49.187Z,67.30
2023-01-05T22:55:51.181Z,67.29
2023-01-05T22:58:54.845Z,67.23
2023-01-05T23:01:56.846Z,67.14
2023-01-05T23:04:58.815Z,67.13
2023-01-05T23:08:00.738Z,67.08
2023-01-05T23:11:18.689Z,67.01
2023-01-05T23:14:21.201Z,67.04
2023-01-05T23:17:23.077Z,67.16
2023-01-05T23:20:24.968Z,66.75
2023-01-05T23:23:27.580Z,66.53
2023-01-05T23:26:29.806Z,66.44
2023-01-05T23:29:31.629Z,66.11
2023-01-05T23:32:33.607Z,66.38
2023-01-05T23:35:35.468Z,66.14
2023-01-05T23:38:38.263Z,66.15
2023-01-05T23:41:40.228Z,66.32
2023-01-05T23:44:42.605Z,66.25
2023-01-05T23:47:44.527Z,66.22
2023-01-05T23:50:47.434Z,66.38
2023-01-05T23:53:51.391Z,66.39
2023-01-05T23:56:53.278Z,66.36
2023-01-05T23:59:55.243Z,66.26
